createdAt,value
2022-08-22T00:01:38.342Z,96212.81
2022-08-22T00:02:42.589Z,96203.44
2022-08-22T00:02:56.461Z,96203.84
2022-08-22T00:04:13.283Z,96207.47
2022-08-22T00:06:50.712Z,96207.06
2022-08-22T00:09:29.595Z,96206.03
2022-08-22T00:12:08.315Z,96205.44
2022-08-22T00:14:41.472Z,96213.03
2022-08-22T00:17:29.173Z,96214.06
2022-08-22T00:20:07.301Z,96217.97
2022-08-22T00:22:40.683Z,96209.56
2022-08-22T00:25:26.731Z,96216.94
2022-08-22T00:27:58.386Z,96221.47
2022-08-22T00:30:30.290Z,96207.50
2022-08-22T00:33:02.774Z,96199.66
2022-08-22T00:35:44.873Z,96202.75
2022-08-22T00:38:19.001Z,96202.13
2022-08-22T00:41:00.033Z,96198.63
2022-08-22T00:44:01.840Z,96200.66
2022-08-22T00:46:44.984Z,96204.00
2022-08-22T00:49:24.537Z,96201.09
2022-08-22T00:52:27.447Z,96204.81
2022-08-22T00:55:18.478Z,96204.41
2022-08-22T00:57:56.551Z,96208.38
2022-08-22T01:00:27.086Z,96215.28
2022-08-22T01:03:11.625Z,96209.09
2022-08-22T01:06:00.402Z,96208.00
2022-08-22T01:08:40.488Z,96208.63
2022-08-22T01:11:23.311Z,96211.34
2022-08-22T01:14:05.259Z,96211.50
2022-08-22T01:17:00.721Z,96218.09
2022-08-22T01:20:05.248Z,96207.25
2022-08-22T01:23:07.711Z,96199.84
2022-08-22T01:26:19.450Z,96199.88
2022-08-22T01:29:28.512Z,96195.16
2022-08-22T01:32:21.044Z,96196.78
2022-08-22T01:35:05.954Z,96194.59
2022-08-22T01:38:10.264Z,96197.00
2022-08-22T01:41:17.052Z,96191.81
2022-08-22T01:44:03.227Z,96194.94
2022-08-22T01:46:36.525Z,96194.94
2022-08-22T01:49:11.436Z,96197.84
2022-08-22T01:51:47.289Z,96200.69
2022-08-22T01:54:26.333Z,96214.88
2022-08-22T01:57:00.602Z,96204.81
2022-08-22T01:59:34.607Z,96217.22
2022-08-22T02:02:22.101Z,96222.44
2022-08-22T02:04:56.787Z,96218.31
2022-08-22T02:07:32.241Z,96214.19
2022-08-22T02:10:10.986Z,96220.63
2022-08-22T02:12:46.132Z,96223.91
2022-08-22T02:15:20.114Z,96218.78
2022-08-22T02:18:02.335Z,96221.66
2022-08-22T02:20:34.274Z,96224.56
2022-08-22T02:23:09.206Z,96228.88
2022-08-22T02:25:50.965Z,96229.50
2022-08-22T02:28:31.993Z,96228.00
2022-08-22T02:31:04.218Z,96235.81
2022-08-22T02:33:37.125Z,96231.97
2022-08-22T02:36:11.865Z,96226.41
2022-08-22T02:38:45.682Z,96223.13
2022-08-22T02:41:18.970Z,96219.81
2022-08-22T02:44:02.632Z,96224.28
2022-08-22T02:46:41.008Z,96224.50
2022-08-22T02:49:13.840Z,96222.47
2022-08-22T02:51:48.789Z,96224.81
2022-08-22T02:54:21.853Z,96224.50
2022-08-22T02:56:53.998Z,96211.75
2022-08-22T02:59:34.770Z,96217.13
2022-08-22T03:02:28.282Z,96218.38
2022-08-22T03:04:58.719Z,96225.56
2022-08-22T03:07:33.833Z,96214.28
2022-08-22T03:10:15.675Z,96226.63
2022-08-22T03:12:53.607Z,96215.72
2022-08-22T03:15:28.972Z,96222.47
2022-08-22T03:18:05.387Z,96222.50
2022-08-22T03:20:43.180Z,96220.22
2022-08-22T03:23:17.634Z,96224.56
2022-08-22T03:25:53.053Z,96226.59
2022-08-22T03:28:23.930Z,96224.50
2022-08-22T03:31:00.511Z,96223.88
2022-08-22T03:33:30.457Z,96225.53
2022-08-22T03:36:04.427Z,96221.38
2022-08-22T03:38:45.655Z,96219.19
2022-08-22T03:41:43.559Z,96223.44
2022-08-22T03:44:40.236Z,96227.44
2022-08-22T03:47:37.122Z,96232.53
2022-08-22T03:50:25.314Z,96228.59
2022-08-22T03:53:39.678Z,96223.25
2022-08-22T03:56:33.140Z,96230.53
2022-08-22T03:59:23.564Z,96220.88
2022-08-22T04:02:42.061Z,96232.72
2022-08-22T04:05:25.230Z,96231.03
2022-08-22T04:08:11.276Z,96239.84
2022-08-22T04:11:21.538Z,96235.31
2022-08-22T04:14:13.101Z,96243.88
2022-08-22T04:17:15.463Z,96251.81
2022-08-22T04:20:16.671Z,96246.28
2022-08-22T04:22:58.896Z,96243.44
2022-08-22T04:25:32.596Z,96246.19
2022-08-22T04:28:04.868Z,96247.41
2022-08-22T04:30:36.637Z,96258.50
2022-08-22T04:33:10.003Z,96238.97
2022-08-22T04:35:44.380Z,96238.16
2022-08-22T04:38:16.809Z,96249.22
2022-08-22T04:40:50.222Z,96247.03
2022-08-22T04:43:24.075Z,96255.41
2022-08-22T04:45:58.854Z,96251.00
2022-08-22T04:48:33.568Z,96245.59
2022-08-22T04:51:04.951Z,96247.00
2022-08-22T04:53:57.344Z,96251.91
2022-08-22T04:56:35.721Z,96258.13
2022-08-22T04:59:09.640Z,96257.78
2022-08-22T05:01:44.209Z,96255.63
2022-08-22T05:04:16.690Z,96247.00
2022-08-22T05:06:47.585Z,96242.00
2022-08-22T05:09:20.933Z,96250.06
2022-08-22T05:11:51.431Z,96251.94
2022-08-22T05:14:20.896Z,96244.81
2022-08-22T05:16:53.978Z,96241.88
2022-08-22T05:19:31.780Z,96236.91
2022-08-22T05:22:00.906Z,96232.91
2022-08-22T05:24:33.880Z,96225.56
2022-08-22T05:27:13.199Z,96235.81
2022-08-22T05:29:44.447Z,96239.81
2022-08-22T05:32:19.184Z,96234.47
2022-08-22T05:34:48.769Z,96251.44
2022-08-22T05:37:22.517Z,96258.63
2022-08-22T05:39:54.128Z,96259.16
2022-08-22T05:42:26.495Z,96256.88
2022-08-22T05:44:55.488Z,96260.91
2022-08-22T05:47:28.981Z,96258.88
2022-08-22T05:50:00.995Z,96263.72
2022-08-22T05:52:40.978Z,96270.53
2022-08-22T05:55:25.070Z,96265.78
2022-08-22T05:58:06.837Z,96260.84
2022-08-22T06:00:39.381Z,96269.16
2022-08-22T06:03:16.096Z,96264.81
2022-08-22T06:05:48.726Z,96265.69
2022-08-22T06:08:21.590Z,96272.13
2022-08-22T06:10:54.059Z,96266.59
2022-08-22T06:13:28.101Z,96271.34
2022-08-22T06:16:09.272Z,96276.94
2022-08-22T06:18:41.341Z,96285.44
2022-08-22T06:21:13.138Z,96289.47
2022-08-22T06:23:44.821Z,96271.50
2022-08-22T06:26:20.528Z,96267.38
2022-08-22T06:28:55.630Z,96278.78
2022-08-22T06:31:27.258Z,96272.53
2022-08-22T06:34:00.460Z,96279.06
2022-08-22T06:36:32.514Z,96278.72
2022-08-22T06:39:09.083Z,96270.09
2022-08-22T06:41:40.941Z,96278.41
2022-08-22T06:44:11.267Z,96274.50
2022-08-22T06:46:40.484Z,96272.66
2022-08-22T06:49:10.622Z,96273.59
2022-08-22T06:51:40.209Z,96278.69
2022-08-22T06:54:14.867Z,96271.00
2022-08-22T06:56:45.873Z,96279.25
2022-08-22T06:59:16.381Z,96276.97
2022-08-22T07:01:50.219Z,96284.41
2022-08-22T07:04:25.862Z,96277.16
2022-08-22T07:06:55.979Z,96275.75
2022-08-22T07:09:27.591Z,96276.81
2022-08-22T07:11:57.988Z,96283.50
2022-08-22T07:14:27.079Z,96280.16
2022-08-22T07:16:58.169Z,96270.25
2022-08-22T07:19:29.999Z,96273.44
2022-08-22T07:21:59.447Z,96269.91
2022-08-22T07:24:31.062Z,96279.44
2022-08-22T07:27:15.980Z,96275.72
2022-08-22T07:29:49.572Z,96272.72
2022-08-22T07:32:20.926Z,96268.28
2022-08-22T07:35:03.072Z,96273.47
2022-08-22T07:37:46.201Z,96274.06
2022-08-22T07:40:20.975Z,96272.44
2022-08-22T07:42:52.655Z,96265.03
2022-08-22T07:45:34.931Z,96264.16
2022-08-22T07:48:25.108Z,96265.78
2022-08-22T07:51:08.883Z,96263.09
2022-08-22T07:53:43.907Z,96266.91
2022-08-22T07:56:16.565Z,96274.56
2022-08-22T07:58:46.458Z,96270.56
2022-08-22T08:01:19.629Z,96267.19
2022-08-22T08:03:52.545Z,96260.06
2022-08-22T08:06:24.147Z,96266.53
2022-08-22T08:08:53.255Z,96264.31
2022-08-22T08:11:23.812Z,96263.75
2022-08-22T08:13:55.871Z,96263.31
2022-08-22T08:16:26.644Z,96271.34
2022-08-22T08:18:58.136Z,96272.28
2022-08-22T08:21:28.753Z,96269.84
2022-08-22T08:23:56.814Z,96265.28
2022-08-22T08:26:28.892Z,96270.16
2022-08-22T08:28:58.227Z,96267.91
2022-08-22T08:31:31.952Z,96264.41
2022-08-22T08:34:05.175Z,96269.41
2022-08-22T08:36:41.646Z,96266.06
2022-08-22T08:39:18.245Z,96262.13
2022-08-22T08:42:20.308Z,96263.72
2022-08-22T08:45:11.739Z,96266.91
2022-08-22T08:48:17.224Z,96256.19
2022-08-22T08:50:59.446Z,96254.09
2022-08-22T08:53:50.966Z,96253.81
2022-08-22T08:56:26.887Z,96254.75
2022-08-22T08:59:01.293Z,96253.22
2022-08-22T09:01:46.537Z,96248.97
2022-08-22T09:04:46.827Z,96255.81
2022-08-22T09:07:44.189Z,96252.38
2022-08-22T09:10:27.315Z,96246.28
2022-08-22T09:13:18.255Z,96241.50
2022-08-22T09:16:05.206Z,96243.47
2022-08-22T09:18:50.358Z,96248.97
2022-08-22T09:21:31.235Z,96255.56
2022-08-22T09:24:36.467Z,96246.81
2022-08-22T09:27:08.726Z,96248.03
2022-08-22T09:29:51.518Z,96255.59
2022-08-22T09:32:33.759Z,96257.09
2022-08-22T09:35:08.623Z,96260.94
2022-08-22T09:37:46.466Z,96256.84
2022-08-22T09:43:03.856Z,96244.34
2022-08-22T09:45:47.911Z,96248.19
2022-08-22T09:48:34.649Z,96248.03
2022-08-22T09:51:33.210Z,96247.09
2022-08-22T09:54:14.780Z,96247.44
2022-08-22T09:56:53.519Z,96258.06
2022-08-22T09:59:26.811Z,96254.66
2022-08-22T10:02:00.874Z,96248.66
2022-08-22T10:04:42.115Z,96250.22
2022-08-22T10:07:25.420Z,96262.75
2022-08-22T10:10:01.813Z,96257.94
2022-08-22T10:12:36.233Z,96254.13
2022-08-22T10:15:17.100Z,96254.69
2022-08-22T10:17:58.942Z,96252.00
2022-08-22T10:20:32.802Z,96259.22
2022-08-22T10:23:14.775Z,96253.38
2022-08-22T10:25:45.352Z,96256.09
2022-08-22T10:28:19.465Z,96249.94
2022-08-22T10:31:10.842Z,96245.72
2022-08-22T10:33:44.387Z,96244.38
2022-08-22T10:36:16.926Z,96240.78
2022-08-22T10:38:48.743Z,96244.69
2022-08-22T10:41:28.601Z,96242.72
2022-08-22T10:44:04.114Z,96245.59
2022-08-22T10:46:37.955Z,96239.81
2022-08-22T10:49:10.374Z,96238.41
2022-08-22T10:51:45.594Z,96236.38
2022-08-22T10:54:28.513Z,96245.19
2022-08-22T10:57:07.890Z,96241.72
2022-08-22T10:59:40.307Z,96236.16
2022-08-22T11:02:30.504Z,96241.34
2022-08-22T11:05:15.456Z,96234.66
2022-08-22T11:07:48.873Z,96236.50
2022-08-22T11:10:25.090Z,96238.19
2022-08-22T11:13:12.077Z,96235.03
2022-08-22T11:16:09.433Z,96237.47
2022-08-22T11:19:01.911Z,96240.34
2022-08-22T11:21:46.987Z,96238.84
2022-08-22T11:24:55.785Z,96236.19
2022-08-22T11:27:39.967Z,96241.28
2022-08-22T11:30:18.052Z,96230.94
2022-08-22T11:33:11.311Z,96248.19
2022-08-22T11:35:47.177Z,96240.13
2022-08-22T11:38:21.773Z,96235.69
2022-08-22T11:40:58.183Z,96242.19
2022-08-22T11:43:39.117Z,96237.41
2022-08-22T11:46:24.492Z,96235.56
2022-08-22T11:49:06.385Z,96236.53
2022-08-22T11:52:13.989Z,96234.19
2022-08-22T11:54:59.157Z,96230.25
2022-08-22T11:57:32.626Z,96229.81
2022-08-22T12:00:11.488Z,96223.94
2022-08-22T12:02:49.114Z,96222.00
2022-08-22T12:05:26.296Z,96216.88
2022-08-22T12:08:06.686Z,96224.91
2022-08-22T12:10:37.641Z,96225.34
2022-08-22T12:13:09.460Z,96233.00
2022-08-22T12:15:44.864Z,96218.50
2022-08-22T12:18:30.180Z,96215.78
2022-08-22T12:21:39.833Z,96211.25
2022-08-22T12:24:34.501Z,96211.88
2022-08-22T12:27:34.901Z,96210.41
2022-08-22T12:30:12.955Z,96208.56
2022-08-22T12:33:05.790Z,96208.16
2022-08-22T12:35:41.340Z,96204.28
2022-08-22T12:38:28.906Z,96203.88
2022-08-22T12:41:28.093Z,96203.28
2022-08-22T12:44:17.347Z,96198.72
2022-08-22T12:46:56.026Z,96205.88
2022-08-22T12:49:38.558Z,96199.06
2022-08-22T12:52:17.041Z,96196.41
2022-08-22T12:54:53.332Z,96203.69
2022-08-22T12:57:29.259Z,96193.91
2022-08-22T13:00:08.477Z,96201.44
2022-08-22T13:02:41.703Z,96190.16
2022-08-22T13:05:13.760Z,96184.75
2022-08-22T13:07:52.686Z,96192.50
2022-08-22T13:10:40.801Z,96195.97
2022-08-22T13:13:14.688Z,96188.31
2022-08-22T13:15:53.915Z,96187.56
2022-08-22T13:18:29.889Z,96186.97
2022-08-22T13:21:02.753Z,96188.16
2022-08-22T13:23:34.391Z,96188.81
2022-08-22T13:26:12.053Z,96189.25
2022-08-22T13:29:04.195Z,96189.94
2022-08-22T13:31:39.701Z,96194.03
2022-08-22T13:34:13.432Z,96195.56
2022-08-22T13:36:43.570Z,96192.72
2022-08-22T13:39:26.314Z,96183.75
2022-08-22T13:41:56.368Z,96189.75
2022-08-22T13:44:28.731Z,96183.31
2022-08-22T13:47:14.222Z,96177.59
2022-08-22T13:49:45.867Z,96172.19
2022-08-22T13:52:29.206Z,96168.84
2022-08-22T13:55:02.507Z,96171.56
2022-08-22T13:57:34.745Z,96165.38
2022-08-22T14:00:11.968Z,96169.94
2022-08-22T14:03:01.805Z,96164.72
2022-08-22T14:05:37.647Z,96155.94
2022-08-22T14:08:15.805Z,96159.22
2022-08-22T14:10:54.925Z,96160.31
2022-08-22T14:13:39.636Z,96166.28
2022-08-22T14:16:15.021Z,96163.63
2022-08-22T14:18:49.559Z,96166.13
2022-08-22T14:21:33.514Z,96155.06
2022-08-22T14:24:17.340Z,96159.38
2022-08-22T14:26:57.906Z,96168.84
2022-08-22T14:29:28.221Z,96158.56
2022-08-22T14:32:05.507Z,96161.00
2022-08-22T14:34:41.131Z,96159.09
2022-08-22T14:37:17.104Z,96157.56
2022-08-22T14:39:47.909Z,96167.16
2022-08-22T14:42:22.843Z,96164.25
2022-08-22T14:45:01.969Z,96155.03
2022-08-22T14:47:55.591Z,96154.31
2022-08-22T14:50:42.273Z,96168.03
2022-08-22T14:53:13.284Z,96166.38
2022-08-22T14:55:43.123Z,96169.00
2022-08-22T14:58:17.126Z,96166.41
2022-08-22T15:00:47.956Z,96173.50
2022-08-22T15:03:26.676Z,96173.91
2022-08-22T15:05:57.255Z,96171.66
2022-08-22T15:08:31.490Z,96172.28
2022-08-22T15:11:08.959Z,96170.50
2022-08-22T15:13:37.946Z,96167.56
2022-08-22T15:16:16.102Z,96175.00
2022-08-22T15:18:51.796Z,96168.94
2022-08-22T15:21:28.862Z,96161.56
2022-08-22T15:24:00.556Z,96173.19
2022-08-22T15:26:32.973Z,96174.66
2022-08-22T15:29:08.586Z,96181.59
2022-08-22T15:31:41.460Z,96176.47
2022-08-22T15:34:18.188Z,96178.16
2022-08-22T15:37:28.506Z,96169.41
2022-08-22T15:40:03.012Z,96186.47
2022-08-22T15:42:39.121Z,96177.31
2022-08-22T15:45:18.703Z,96184.13
2022-08-22T15:47:52.126Z,96188.09
2022-08-22T15:50:34.284Z,96188.38
2022-08-22T15:53:12.244Z,96189.53
2022-08-22T15:56:20.793Z,96193.53
2022-08-22T15:58:50.554Z,96193.41
2022-08-22T16:01:22.144Z,96193.72
2022-08-22T16:03:55.879Z,96192.25
2022-08-22T16:06:44.066Z,96198.63
2022-08-22T16:09:31.197Z,96189.06
2022-08-22T16:12:00.120Z,96192.09
2022-08-22T16:14:47.390Z,96188.53
2022-08-22T16:17:45.201Z,96194.09
2022-08-22T16:20:51.273Z,96201.03
2022-08-22T16:23:21.049Z,96195.16
2022-08-22T16:26:08.910Z,96197.81
2022-08-22T16:29:03.835Z,96196.91
2022-08-22T16:31:34.811Z,96199.88
2022-08-22T16:34:22.445Z,96199.88
2022-08-22T16:36:52.776Z,96196.81
2022-08-22T16:39:36.176Z,96197.56
2022-08-22T16:42:28.706Z,96203.69
2022-08-22T16:45:09.900Z,96205.28
2022-08-22T16:47:42.893Z,96204.31
2022-08-22T16:50:32.252Z,96195.63
2022-08-22T16:53:04.757Z,96199.09
2022-08-22T16:55:52.102Z,96204.31
2022-08-22T16:58:57.732Z,96209.88
2022-08-22T17:01:39.166Z,96200.56
2022-08-22T17:04:16.685Z,96202.34
2022-08-22T17:07:07.257Z,96206.50
2022-08-22T17:10:12.528Z,96205.19
2022-08-22T17:12:54.177Z,96209.66
2022-08-22T17:15:30.267Z,96208.38
2022-08-22T17:18:16.030Z,96210.22
2022-08-22T17:20:48.800Z,96206.56
2022-08-22T17:23:25.705Z,96208.94
2022-08-22T17:26:02.495Z,96202.94
2022-08-22T17:28:41.555Z,96209.41
2022-08-22T17:31:16.051Z,96216.31
2022-08-22T17:34:03.390Z,96222.09
2022-08-22T17:36:42.927Z,96215.81
2022-08-22T17:39:24.470Z,96218.94
2022-08-22T17:41:56.494Z,96220.06
2022-08-22T17:44:44.068Z,96216.28
2022-08-22T17:47:16.351Z,96211.94
2022-08-22T17:49:53.001Z,96212.50
2022-08-22T17:52:25.761Z,96222.97
2022-08-22T17:54:58.584Z,96221.84
2022-08-22T17:57:30.618Z,96227.16
2022-08-22T18:00:03.646Z,96225.22
2022-08-22T18:02:35.342Z,96222.38
2022-08-22T18:05:08.006Z,96223.69
2022-08-22T18:07:54.383Z,96217.75
2022-08-22T18:10:39.645Z,96228.63
2022-08-22T18:13:12.095Z,96235.78
2022-08-22T18:15:47.710Z,96234.41
2022-08-22T18:18:30.127Z,96235.03
2022-08-22T18:21:03.411Z,96238.28
2022-08-22T18:23:39.891Z,96241.56
2022-08-22T18:26:20.211Z,96238.31
2022-08-22T18:28:52.075Z,96247.84
2022-08-22T18:31:38.184Z,96239.53
2022-08-22T18:34:15.088Z,96242.72
2022-08-22T18:36:51.716Z,96241.09
2022-08-22T18:39:27.452Z,96239.53
2022-08-22T18:42:01.891Z,96241.41
2022-08-22T18:44:34.730Z,96246.44
2022-08-22T18:47:13.907Z,96240.28
2022-08-22T18:49:48.400Z,96240.44
2022-08-22T18:52:38.506Z,96242.47
2022-08-22T18:55:29.031Z,96249.13
2022-08-22T18:58:01.056Z,96241.00
2022-08-22T19:00:42.939Z,96253.13
2022-08-22T19:03:25.244Z,96249.72
2022-08-22T19:06:19.112Z,96260.63
2022-08-22T19:09:37.983Z,96256.59
2022-08-22T19:12:17.184Z,96259.78
2022-08-22T19:15:13.726Z,96265.72
2022-08-22T19:17:59.328Z,96273.16
2022-08-22T19:20:49.395Z,96273.00
2022-08-22T19:23:43.624Z,96271.97
2022-08-22T19:26:42.899Z,96276.94
2022-08-22T19:29:59.832Z,96277.81
2022-08-22T19:33:01.568Z,96285.91
2022-08-22T19:35:40.153Z,96285.16
2022-08-22T19:38:10.217Z,96283.41
2022-08-22T19:40:55.856Z,96285.44
2022-08-22T19:43:35.755Z,96294.16
2022-08-22T19:46:07.201Z,96283.56
2022-08-22T19:48:45.520Z,96305.59
2022-08-22T19:51:26.180Z,96294.63
2022-08-22T19:54:16.371Z,96300.22
2022-08-22T19:56:58.599Z,96295.00
2022-08-22T19:59:37.445Z,96300.22
2022-08-22T20:02:20.857Z,96304.34
2022-08-22T20:05:05.057Z,96307.41
2022-08-22T20:07:43.806Z,96302.84
2022-08-22T20:10:21.217Z,96298.38
2022-08-22T20:13:02.157Z,96298.81
2022-08-22T20:15:31.766Z,96306.66
2022-08-22T20:21:00.511Z,96303.53
2022-08-22T20:23:32.237Z,96308.28
2022-08-22T20:26:01.113Z,96305.00
2022-08-22T20:28:37.439Z,96313.03
2022-08-22T20:31:10.877Z,96312.22
2022-08-22T20:33:41.856Z,96311.22
2022-08-22T20:36:28.005Z,96318.63
2022-08-22T20:39:01.600Z,96307.91
2022-08-22T20:41:33.790Z,96316.78
2022-08-22T20:44:06.722Z,96314.09
2022-08-22T20:46:53.836Z,96301.56
2022-08-22T20:49:26.292Z,96305.06
2022-08-22T20:51:56.350Z,96304.78
2022-08-22T20:54:28.153Z,96313.44
2022-08-22T20:56:59.874Z,96313.66
2022-08-22T20:59:39.365Z,96311.19
2022-08-22T21:02:11.987Z,96320.84
2022-08-22T21:04:52.912Z,96315.72
2022-08-22T21:07:27.203Z,96310.34
2022-08-22T21:10:22.123Z,96312.41
2022-08-22T21:13:06.297Z,96311.03
2022-08-22T21:15:36.909Z,96314.53
2022-08-22T21:18:06.905Z,96311.81
2022-08-22T21:20:37.748Z,96316.03
2022-08-22T21:23:08.996Z,96306.75
2022-08-22T21:25:51.993Z,96311.69
2022-08-22T21:28:32.218Z,96303.66
2022-08-22T21:31:02.441Z,96306.13
2022-08-22T21:33:30.870Z,96308.56
2022-08-22T21:36:00.776Z,96307.38
2022-08-22T21:38:29.358Z,96301.41
2022-08-22T21:41:05.314Z,96293.22
2022-08-22T21:43:36.846Z,96302.66
2022-08-22T21:46:05.846Z,96295.78
2022-08-22T21:48:37.815Z,96296.19
2022-08-22T21:51:29.390Z,96296.84
2022-08-22T21:54:39.881Z,96304.69
2022-08-22T21:57:35.548Z,96302.03
2022-08-22T22:00:11.029Z,96308.94
2022-08-22T22:02:41.055Z,96300.47
2022-08-22T22:05:11.842Z,96299.84
2022-08-22T22:07:42.877Z,96299.53
2022-08-22T22:10:14.004Z,96299.13
2022-08-22T22:12:45.245Z,96293.63
2022-08-22T22:15:16.892Z,96296.00
2022-08-22T22:17:45.360Z,96294.97
2022-08-22T22:20:15.746Z,96308.84
2022-08-22T22:22:46.223Z,96299.28
2022-08-22T22:25:38.815Z,96294.81
2022-08-22T22:28:08.819Z,96295.69
2022-08-22T22:30:37.368Z,96288.00
2022-08-22T22:33:06.307Z,96288.22
2022-08-22T22:35:35.243Z,96296.69
2022-08-22T22:38:03.765Z,96288.50
2022-08-22T22:40:32.356Z,96291.88
2022-08-22T22:43:00.817Z,96299.81
2022-08-22T22:45:30.871Z,96296.53
2022-08-22T22:47:59.386Z,96297.34
2022-08-22T22:50:28.035Z,96295.78
2022-08-22T22:52:56.350Z,96291.75
2022-08-22T22:55:25.338Z,96294.25
2022-08-22T22:57:59.206Z,96302.63
2022-08-22T23:00:32.242Z,96298.63
2022-08-22T23:03:01.492Z,96299.78
2022-08-22T23:05:30.156Z,96302.03
2022-08-22T23:07:59.471Z,96292.56
2022-08-22T23:10:28.943Z,96299.59
2022-08-22T23:12:58.546Z,96299.25
2022-08-22T23:15:27.409Z,96294.47
2022-08-22T23:17:57.284Z,96291.09
2022-08-22T23:20:25.800Z,96293.59
2022-08-22T23:22:54.287Z,96292.69
2022-08-22T23:25:22.668Z,96297.63
2022-08-22T23:27:52.586Z,96297.59
2022-08-22T23:30:21.600Z,96301.16
2022-08-22T23:32:50.331Z,96296.84
2022-08-22T23:35:20.199Z,96294.75
2022-08-22T23:37:48.587Z,96294.69
2022-08-22T23:40:16.998Z,96291.28
2022-08-22T23:42:45.478Z,96283.03
2022-08-22T23:45:13.900Z,96286.09
2022-08-22T23:47:42.250Z,96287.41
2022-08-22T23:50:10.918Z,96282.47
2022-08-22T23:52:40.558Z,96275.25
2022-08-22T23:55:09.690Z,96283.09
2022-08-22T23:57:38.033Z,96275.22
